sensor_id;sensor_type;location;lat;lon;timestamp;P1;durP1;ratioP1;P2;durP2;ratioP2
3979;SDS011;2004;52.452;13.120;2024-03-25T00:03:04;198.70;;;10.90;;
3979;SDS011;2004;52.452;13.120;2024-03-25T00:10:55;198.07;;;10.40;;
3979;SDS011;2004;52.452;13.120;2024-03-25T00:18:46;197.87;;;10.20;;
3979;SDS011;2004;52.452;13.120;2024-03-25T00:26:36;197.60;;;11.03;;
3979;SDS011;2004;52.452;13.120;2024-03-25T00:34:27;201.77;;;11.90;;
3979;SDS011;2004;52.452;13.120;2024-03-25T00:42:17;200.07;;;11.50;;
3979;SDS011;2004;52.452;13.120;2024-03-25T00:50:08;197.20;;;10.77;;
3979;SDS011;2004;52.452;13.120;2024-03-25T00:57:59;199.97;;;11.33;;
3979;SDS011;2004;52.452;13.120;2024-03-25T01:05:50;198.97;;;11.20;;
3979;SDS011;2004;52.452;13.120;2024-03-25T01:13:40;198.80;;;10.50;;
3979;SDS011;2004;52.452;13.120;2024-03-25T01:21:33;198.80;;;10.93;;
3979;SDS011;2004;52.452;13.120;2024-03-25T01:29:24;199.37;;;10.60;;
3979;SDS011;2004;52.452;13.120;2024-03-25T01:37:15;196.77;;;10.50;;
3979;SDS011;2004;52.452;13.120;2024-03-25T01:45:06;197.97;;;10.70;;
3979;SDS011;2004;52.452;13.120;2024-03-25T01:52:57;201.07;;;12.00;;
3979;SDS011;2004;52.452;13.120;2024-03-25T02:00:47;203.53;;;12.50;;
3979;SDS011;2004;52.452;13.120;2024-03-25T02:08:40;204.73;;;12.33;;
3979;SDS011;2004;52.452;13.120;2024-03-25T02:16:31;208.20;;;12.20;;
3979;SDS011;2004;52.452;13.120;2024-03-25T02:24:21;204.17;;;11.90;;
3979;SDS011;2004;52.452;13.120;2024-03-25T02:32:15;200.07;;;11.93;;
3979;SDS011;2004;52.452;13.120;2024-03-25T02:40:06;201.30;;;11.17;;
3979;SDS011;2004;52.452;13.120;2024-03-25T02:48:01;201.27;;;11.47;;
3979;SDS011;2004;52.452;13.120;2024-03-25T02:55:52;197.23;;;10.10;;
3979;SDS011;2004;52.452;13.120;2024-03-25T03:03:42;195.13;;;9.77;;
3979;SDS011;2004;52.452;13.120;2024-03-25T03:11:33;202.27;;;10.17;;
3979;SDS011;2004;52.452;13.120;2024-03-25T03:19:25;194.97;;;9.43;;
3979;SDS011;2004;52.452;13.120;2024-03-25T03:27:16;199.27;;;9.97;;
3979;SDS011;2004;52.452;13.120;2024-03-25T03:35:07;199.90;;;9.30;;
3979;SDS011;2004;52.452;13.120;2024-03-25T03:42:57;197.00;;;9.97;;
3979;SDS011;2004;52.452;13.120;2024-03-25T03:50:48;196.17;;;9.77;;
3979;SDS011;2004;52.452;13.120;2024-03-25T03:58:39;201.07;;;9.67;;
3979;SDS011;2004;52.452;13.120;2024-03-25T04:06:29;198.80;;;10.00;;
3979;SDS011;2004;52.452;13.120;2024-03-25T04:14:20;197.03;;;10.40;;
3979;SDS011;2004;52.452;13.120;2024-03-25T04:22:12;197.93;;;10.20;;
3979;SDS011;2004;52.452;13.120;2024-03-25T04:30:02;201.10;;;10.40;;
3979;SDS011;2004;52.452;13.120;2024-03-25T04:37:53;201.20;;;11.03;;
3979;SDS011;2004;52.452;13.120;2024-03-25T04:45:47;210.43;;;11.80;;
3979;SDS011;2004;52.452;13.120;2024-03-25T04:53:37;204.23;;;11.40;;
3979;SDS011;2004;52.452;13.120;2024-03-25T05:01:28;204.63;;;11.83;;
3979;SDS011;2004;52.452;13.120;2024-03-25T05:09:18;206.87;;;12.20;;
3979;SDS011;2004;52.452;13.120;2024-03-25T05:17:10;201.10;;;11.97;;
3979;SDS011;2004;52.452;13.120;2024-03-25T05:25:00;203.57;;;11.77;;
3979;SDS011;2004;52.452;13.120;2024-03-25T05:32:52;210.03;;;12.63;;
3979;SDS011;2004;52.452;13.120;2024-03-25T05:40:42;205.70;;;11.33;;
3979;SDS011;2004;52.452;13.120;2024-03-25T05:48:35;203.90;;;11.17;;
3979;SDS011;2004;52.452;13.120;2024-03-25T05:56:26;203.80;;;11.63;;
3979;SDS011;2004;52.452;13.120;2024-03-25T06:04:20;202.80;;;12.60;;
3979;SDS011;2004;52.452;13.120;2024-03-25T06:12:11;202.70;;;11.37;;
3979;SDS011;2004;52.452;13.120;2024-03-25T06:20:03;206.70;;;11.80;;
3979;SDS011;2004;52.452;13.120;2024-03-25T06:27:54;206.27;;;11.70;;
3979;SDS011;2004;52.452;13.120;2024-03-25T06:35:45;206.37;;;10.87;;
3979;SDS011;2004;52.452;13.120;2024-03-25T06:43:36;201.47;;;11.63;;
3979;SDS011;2004;52.452;13.120;2024-03-25T06:51:28;203.93;;;11.30;;
3979;SDS011;2004;52.452;13.120;2024-03-25T06:59:18;203.20;;;11.80;;
3979;SDS011;2004;52.452;13.120;2024-03-25T07:07:10;204.70;;;11.40;;
3979;SDS011;2004;52.452;13.120;2024-03-25T07:15:01;204.93;;;11.90;;
3979;SDS011;2004;52.452;13.120;2024-03-25T07:22:55;198.47;;;11.17;;
3979;SDS011;2004;52.452;13.120;2024-03-25T07:30:46;201.27;;;11.57;;
3979;SDS011;2004;52.452;13.120;2024-03-25T07:38:39;217.47;;;12.37;;
3979;SDS011;2004;52.452;13.120;2024-03-25T07:46:30;204.83;;;12.10;;
3979;SDS011;2004;52.452;13.120;2024-03-25T07:54:21;209.10;;;12.10;;
3979;SDS011;2004;52.452;13.120;2024-03-25T08:02:12;210.20;;;12.10;;
3979;SDS011;2004;52.452;13.120;2024-03-25T08:10:03;201.10;;;11.47;;
3979;SDS011;2004;52.452;13.120;2024-03-25T08:17:54;205.80;;;12.00;;
3979;SDS011;2004;52.452;13.120;2024-03-25T08:25:44;198.50;;;10.73;;
3979;SDS011;2004;52.452;13.120;2024-03-25T08:33:35;203.17;;;11.30;;
3979;SDS011;2004;52.452;13.120;2024-03-25T08:41:25;198.33;;;11.10;;
3979;SDS011;2004;52.452;13.120;2024-03-25T08:49:16;198.00;;;10.90;;
3979;SDS011;2004;52.452;13.120;2024-03-25T08:57:06;197.07;;;11.20;;
3979;SDS011;2004;52.452;13.120;2024-03-25T09:04:57;198.83;;;10.57;;
3979;SDS011;2004;52.452;13.120;2024-03-25T09:12:47;196.03;;;10.37;;
3979;SDS011;2004;52.452;13.120;2024-03-25T09:20:38;193.97;;;10.50;;
3979;SDS011;2004;52.452;13.120;2024-03-25T09:28:28;195.60;;;10.13;;
3979;SDS011;2004;52.452;13.120;2024-03-25T09:36:19;194.57;;;10.50;;
3979;SDS011;2004;52.452;13.120;2024-03-25T09:44:09;194.13;;;9.43;;
3979;SDS011;2004;52.452;13.120;2024-03-25T09:52:00;195.37;;;9.50;;
3979;SDS011;2004;52.452;13.120;2024-03-25T09:59:51;191.13;;;8.70;;
3979;SDS011;2004;52.452;13.120;2024-03-25T10:07:42;193.90;;;8.63;;
3979;SDS011;2004;52.452;13.120;2024-03-25T10:15:32;188.97;;;8.97;;
3979;SDS011;2004;52.452;13.120;2024-03-25T10:23:23;188.87;;;9.00;;
3979;SDS011;2004;52.452;13.120;2024-03-25T10:31:17;191.37;;;9.10;;
3979;SDS011;2004;52.452;13.120;2024-03-25T10:39:08;189.97;;;8.40;;
3979;SDS011;2004;52.452;13.120;2024-03-25T10:47:03;188.83;;;8.87;;
3979;SDS011;2004;52.452;13.120;2024-03-25T10:54:56;194.67;;;8.73;;
3979;SDS011;2004;52.452;13.120;2024-03-25T11:02:47;194.80;;;9.03;;
3979;SDS011;2004;52.452;13.120;2024-03-25T11:10:45;194.10;;;9.53;;
3979;SDS011;2004;52.452;13.120;2024-03-25T11:18:36;187.47;;;8.50;;
3979;SDS011;2004;52.452;13.120;2024-03-25T11:26:27;199.30;;;9.80;;
3979;SDS011;2004;52.452;13.120;2024-03-25T11:34:20;186.93;;;8.30;;
3979;SDS011;2004;52.452;13.120;2024-03-25T11:42:10;185.77;;;8.13;;
3979;SDS011;2004;52.452;13.120;2024-03-25T11:50:07;187.13;;;8.00;;
3979;SDS011;2004;52.452;13.120;2024-03-25T11:57:58;181.27;;;6.93;;
3979;SDS011;2004;52.452;13.120;2024-03-25T12:05:49;182.47;;;6.93;;
3979;SDS011;2004;52.452;13.120;2024-03-25T12:13:39;179.57;;;7.07;;
3979;SDS011;2004;52.452;13.120;2024-03-25T12:21:31;180.60;;;7.30;;
3979;SDS011;2004;52.452;13.120;2024-03-25T12:29:21;185.80;;;7.70;;
3979;SDS011;2004;52.452;13.120;2024-03-25T12:37:14;178.57;;;6.73;;
3979;SDS011;2004;52.452;13.120;2024-03-25T12:45:06;178.00;;;6.60;;
3979;SDS011;2004;52.452;13.120;2024-03-25T12:52:57;177.60;;;6.70;;
3979;SDS011;2004;52.452;13.120;2024-03-25T13:00:47;176.67;;;6.63;;
3979;SDS011;2004;52.452;13.120;2024-03-25T13:08:38;176.57;;;6.57;;
3979;SDS011;2004;52.452;13.120;2024-03-25T13:16:28;177.20;;;6.80;;
3979;SDS011;2004;52.452;13.120;2024-03-25T13:24:19;184.00;;;7.13;;
3979;SDS011;2004;52.452;13.120;2024-03-25T13:32:10;179.90;;;7.53;;
3979;SDS011;2004;52.452;13.120;2024-03-25T13:40:00;181.33;;;7.30;;
3979;SDS011;2004;52.452;13.120;2024-03-25T13:47:51;183.17;;;7.23;;
3979;SDS011;2004;52.452;13.120;2024-03-25T13:55:41;178.20;;;6.87;;
3979;SDS011;2004;52.452;13.120;2024-03-25T14:03:32;179.10;;;6.90;;
3979;SDS011;2004;52.452;13.120;2024-03-25T14:11:23;177.70;;;7.47;;
3979;SDS011;2004;52.452;13.120;2024-03-25T14:19:13;180.50;;;7.70;;
3979;SDS011;2004;52.452;13.120;2024-03-25T14:27:04;189.10;;;7.80;;
3979;SDS011;2004;52.452;13.120;2024-03-25T14:34:54;179.70;;;7.10;;
3979;SDS011;2004;52.452;13.120;2024-03-25T14:42:46;181.57;;;7.40;;
3979;SDS011;2004;52.452;13.120;2024-03-25T14:50:37;182.87;;;7.73;;
3979;SDS011;2004;52.452;13.120;2024-03-25T14:58:27;188.47;;;8.30;;
3979;SDS011;2004;52.452;13.120;2024-03-25T15:06:18;185.70;;;8.30;;
3979;SDS011;2004;52.452;13.120;2024-03-25T15:14:08;187.00;;;7.93;;
3979;SDS011;2004;52.452;13.120;2024-03-25T15:21:58;186.33;;;8.33;;
3979;SDS011;2004;52.452;13.120;2024-03-25T15:29:49;187.40;;;8.10;;
3979;SDS011;2004;52.452;13.120;2024-03-25T15:37:39;192.57;;;9.20;;
3979;SDS011;2004;52.452;13.120;2024-03-25T15:45:30;190.73;;;9.20;;
3979;SDS011;2004;52.452;13.120;2024-03-25T15:53:21;186.50;;;8.60;;
3979;SDS011;2004;52.452;13.120;2024-03-25T16:01:11;187.57;;;8.93;;
3979;SDS011;2004;52.452;13.120;2024-03-25T16:09:02;188.60;;;8.50;;
3979;SDS011;2004;52.452;13.120;2024-03-25T16:16:52;189.80;;;8.50;;
3979;SDS011;2004;52.452;13.120;2024-03-25T16:24:43;187.83;;;8.67;;
3979;SDS011;2004;52.452;13.120;2024-03-25T16:32:34;191.97;;;8.57;;
3979;SDS011;2004;52.452;13.120;2024-03-25T16:40:26;191.90;;;9.00;;
3979;SDS011;2004;52.452;13.120;2024-03-25T16:48:16;189.07;;;8.90;;
3979;SDS011;2004;52.452;13.120;2024-03-25T16:56:07;186.60;;;8.33;;
3979;SDS011;2004;52.452;13.120;2024-03-25T17:03:57;187.03;;;8.07;;
3979;SDS011;2004;52.452;13.120;2024-03-25T17:11:48;193.00;;;8.70;;
3979;SDS011;2004;52.452;13.120;2024-03-25T17:19:38;191.87;;;8.70;;
3979;SDS011;2004;52.452;13.120;2024-03-25T17:27:29;188.17;;;9.00;;
3979;SDS011;2004;52.452;13.120;2024-03-25T17:35:19;203.40;;;10.60;;
3979;SDS011;2004;52.452;13.120;2024-03-25T17:43:10;186.33;;;8.53;;
3979;SDS011;2004;52.452;13.120;2024-03-25T17:51:00;198.83;;;9.87;;
3979;SDS011;2004;52.452;13.120;2024-03-25T17:58:52;192.77;;;9.37;;
3979;SDS011;2004;52.452;13.120;2024-03-25T18:06:42;191.77;;;10.10;;
3979;SDS011;2004;52.452;13.120;2024-03-25T18:14:33;188.13;;;9.63;;
3979;SDS011;2004;52.452;13.120;2024-03-25T18:22:24;188.63;;;9.37;;
3979;SDS011;2004;52.452;13.120;2024-03-25T18:30:15;195.47;;;11.83;;
3979;SDS011;2004;52.452;13.120;2024-03-25T18:38:06;195.40;;;12.27;;
3979;SDS011;2004;52.452;13.120;2024-03-25T18:45:56;193.87;;;13.30;;
3979;SDS011;2004;52.452;13.120;2024-03-25T18:53:47;194.07;;;12.40;;
3979;SDS011;2004;52.452;13.120;2024-03-25T19:01:37;195.87;;;14.20;;
3979;SDS011;2004;52.452;13.120;2024-03-25T19:09:28;196.13;;;13.90;;
3979;SDS011;2004;52.452;13.120;2024-03-25T19:17:19;200.40;;;14.17;;
3979;SDS011;2004;52.452;13.120;2024-03-25T19:25:09;196.60;;;13.30;;
3979;SDS011;2004;52.452;13.120;2024-03-25T19:33:00;194.37;;;11.53;;
3979;SDS011;2004;52.452;13.120;2024-03-25T19:40:51;194.37;;;10.80;;
3979;SDS011;2004;52.452;13.120;2024-03-25T19:48:41;192.17;;;10.20;;
3979;SDS011;2004;52.452;13.120;2024-03-25T19:56:32;197.00;;;10.20;;
3979;SDS011;2004;52.452;13.120;2024-03-25T20:04:22;192.83;;;11.50;;
3979;SDS011;2004;52.452;13.120;2024-03-25T20:12:13;195.07;;;11.23;;
3979;SDS011;2004;52.452;13.120;2024-03-25T20:20:04;194.07;;;11.97;;
3979;SDS011;2004;52.452;13.120;2024-03-25T20:27:56;196.03;;;13.20;;
3979;SDS011;2004;52.452;13.120;2024-03-25T20:35:46;195.23;;;12.13;;
3979;SDS011;2004;52.452;13.120;2024-03-25T20:43:37;200.40;;;13.70;;
3979;SDS011;2004;52.452;13.120;2024-03-25T20:51:28;199.47;;;14.07;;
3979;SDS011;2004;52.452;13.120;2024-03-25T20:59:19;199.20;;;14.90;;
3979;SDS011;2004;52.452;13.120;2024-03-25T21:07:09;203.77;;;14.63;;
3979;SDS011;2004;52.452;13.120;2024-03-25T21:15:00;202.03;;;13.50;;
3979;SDS011;2004;52.452;13.120;2024-03-25T21:22:51;195.30;;;11.93;;
3979;SDS011;2004;52.452;13.120;2024-03-25T21:30:42;200.57;;;13.27;;
3979;SDS011;2004;52.452;13.120;2024-03-25T21:38:33;206.50;;;14.27;;
3979;SDS011;2004;52.452;13.120;2024-03-25T21:46:23;202.77;;;15.40;;
3979;SDS011;2004;52.452;13.120;2024-03-25T21:54:14;204.07;;;15.20;;
3979;SDS011;2004;52.452;13.120;2024-03-25T22:02:05;200.33;;;13.30;;
3979;SDS011;2004;52.452;13.120;2024-03-25T22:09:56;197.13;;;12.60;;
3979;SDS011;2004;52.452;13.120;2024-03-25T22:17:46;201.70;;;11.57;;
3979;SDS011;2004;52.452;13.120;2024-03-25T22:25:37;202.07;;;11.93;;
3979;SDS011;2004;52.452;13.120;2024-03-25T22:33:27;197.70;;;11.43;;
3979;SDS011;2004;52.452;13.120;2024-03-25T22:41:18;196.87;;;11.87;;
3979;SDS011;2004;52.452;13.120;2024-03-25T22:49:09;193.47;;;10.97;;
3979;SDS011;2004;52.452;13.120;2024-03-25T22:56:59;195.27;;;11.23;;
3979;SDS011;2004;52.452;13.120;2024-03-25T23:04:50;196.83;;;11.47;;
3979;SDS011;2004;52.452;13.120;2024-03-25T23:12:41;196.73;;;12.33;;
3979;SDS011;2004;52.452;13.120;2024-03-25T23:20:35;196.30;;;12.50;;
3979;SDS011;2004;52.452;13.120;2024-03-25T23:28:26;201.27;;;13.43;;
3979;SDS011;2004;52.452;13.120;2024-03-25T23:36:17;198.57;;;13.07;;
3979;SDS011;2004;52.452;13.120;2024-03-25T23:44:07;198.87;;;13.53;;
3979;SDS011;2004;52.452;13.120;2024-03-25T23:51:58;201.40;;;13.07;;
3979;SDS011;2004;52.452;13.120;2024-03-25T23:59:49;201.07;;;13.60;;
